Time;durP1;ratioP1;P1;durP2;ratioP2;P2;SDS_P1;SDS_P2;PMS_P1;PMS_P2;Temp;Humidity;BMP_temperature;BMP_pressure;BME280_temperature;BME280_humidity;BME280_pressure;Samples;Min_cycle;Max_cycle;Signal;HPM_P1;HPM_P2
2023/09/13 00:02:15;;;;;;;3.20;3.00;;;;;;;23.99;70.59;97183.25;5032247;28;20285;-23
2023/09/13 00:04:42;;;;;;;3.20;3.00;;;;;;;23.98;70.59;97197.75;5028633;28;20248;-24
2023/09/13 00:07:09;;;;;;;3.50;3.20;;;;;;;23.99;70.53;97196.06;5032673;28;20213;-24
2023/09/13 00:09:38;;;;;;;3.43;3.13;;;;;;;23.99;70.40;97190.94;5024794;28;20229;-24
2023/09/13 00:12:05;;;;;;;3.20;3.00;;;;;;;24.00;70.32;97190.09;5032738;28;20202;-24
2023/09/13 00:14:31;;;;;;;3.13;2.93;;;;;;;24.00;70.65;97197.78;5026358;28;20261;-24
2023/09/13 00:16:59;;;;;;;3.63;3.33;;;;;;;23.99;70.24;97188.38;5032930;28;20201;-25
2023/09/13 00:19:27;;;;;;;3.53;3.23;;;;;;;23.99;70.24;97193.50;5033139;28;20228;-24
2023/09/13 00:21:54;;;;;;;3.53;3.33;;;;;;;23.98;70.61;97192.63;5032669;28;20206;-24
2023/09/13 00:24:21;;;;;;;3.70;3.40;;;;;;;23.98;70.18;97192.63;5032079;28;20208;-24
2023/09/13 00:26:47;;;;;;;3.37;3.10;;;;;;;23.97;70.54;97196.06;5030203;28;20237;-24
2023/09/13 00:29:15;;;;;;;3.63;2.93;;;;;;;23.97;70.49;97197.75;5033284;28;20284;-24
2023/09/13 00:31:41;;;;;;;3.40;3.10;;;;;;;23.97;70.51;97202.88;5029438;28;20490;-24
2023/09/13 00:34:08;;;;;;;3.83;3.40;;;;;;;23.95;70.31;97194.28;5032599;28;20662;-24
2023/09/13 00:36:35;;;;;;;3.20;3.00;;;;;;;23.95;70.22;97199.41;5032249;28;20209;-24
2023/09/13 00:39:04;;;;;;;2.90;2.70;;;;;;;23.93;70.35;97212.22;5032071;28;20257;-24
2023/09/13 00:41:32;;;;;;;3.37;3.07;;;;;;;23.94;70.26;97215.63;5032142;28;20206;-23
2023/09/13 00:43:59;;;;;;;3.43;3.13;;;;;;;23.93;70.41;97211.34;5032633;28;20237;-24
2023/09/13 00:46:26;;;;;;;3.40;3.10;;;;;;;23.88;70.36;97201.03;5032039;28;20205;-24
2023/09/13 00:48:52;;;;;;;3.57;3.27;;;;;;;23.92;70.64;97210.47;5014776;28;20713;-24
2023/09/13 00:51:19;;;;;;;3.57;3.27;;;;;;;23.93;70.80;97207.09;5014282;28;20229;-24
2023/09/13 00:53:46;;;;;;;3.37;3.10;;;;;;;23.94;70.67;97216.50;5032149;28;20249;-24
2023/09/13 00:56:12;;;;;;;3.17;2.97;;;;;;;23.94;70.52;97213.94;5014849;28;20248;-24
2023/09/13 01:01:30;;;;;;;3.33;3.13;;;;;;;23.95;70.54;97228.53;4984305;28;20689;-26
2023/09/13 01:03:57;;;;;;;2.97;2.77;;;;;;;23.95;71.08;97219.94;4975842;28;20358;-26
2023/09/13 01:06:24;;;;;;;3.27;3.03;;;;;;;23.95;70.74;97220.81;4992407;28;20257;-26
2023/09/13 01:08:50;;;;;;;3.43;3.13;;;;;;;23.96;70.84;97221.69;4993322;28;20207;-26
2023/09/13 01:11:17;;;;;;;3.20;2.90;;;;;;;23.87;70.73;97206.13;4992910;28;20728;-26
2023/09/13 01:13:43;;;;;;;3.20;3.00;;;;;;;23.98;70.40;97231.13;4959681;28;20656;-26
2023/09/13 01:16:30;;;;;;;3.00;2.80;;;;;;;23.87;70.69;97207.00;4992819;28;20238;-26
2023/09/13 01:19:04;;;;;;;3.17;2.97;;;;;;;23.99;70.55;97230.31;4977861;28;20223;-26
2023/09/13 01:22:03;;;;;;;3.60;3.30;;;;;;;24.00;70.61;97220.91;4975367;28;20205;-26
2023/09/13 01:24:51;;;;;;;3.43;3.13;;;;;;;24.00;70.62;97224.34;4939836;28;20299;-26
2023/09/13 01:27:47;;;;;;;2.90;2.70;;;;;;;24.00;70.48;97216.63;4972541;28;20203;-26
2023/09/13 01:30:14;;;;;;;3.20;2.97;;;;;;;24.00;70.84;97216.63;4992416;28;20269;-26
2023/09/13 01:32:44;;;;;;;3.30;3.00;;;;;;;24.02;70.50;97214.09;4975041;28;20338;-26
2023/09/13 01:35:11;;;;;;;3.37;3.17;;;;;;;24.01;70.48;97208.09;4994241;28;20250;-26
2023/09/13 01:37:37;;;;;;;3.37;3.13;;;;;;;24.01;70.76;97215.78;4993218;28;20206;-26
2023/09/13 01:40:06;;;;;;;3.17;2.97;;;;;;;24.02;70.55;97225.22;4974914;28;20223;-26
2023/09/13 01:42:33;;;;;;;3.07;2.87;;;;;;;24.03;70.36;97226.94;5006672;28;20580;-26
2023/09/13 01:44:59;;;;;;;3.20;3.00;;;;;;;23.90;70.59;97209.63;4991445;28;20202;-26
2023/09/13 01:47:26;;;;;;;3.17;2.97;;;;;;;24.02;70.71;97239.75;4958311;28;20205;-26
2023/09/13 01:49:53;;;;;;;2.93;2.73;;;;;;;24.03;70.54;97247.47;5007153;28;20218;-26
2023/09/13 01:52:20;;;;;;;3.27;2.93;;;;;;;24.02;70.88;97258.59;4994302;28;20198;-26
2023/09/13 01:54:46;;;;;;;3.27;3.00;;;;;;;23.97;70.47;97249.97;4992438;28;20219;-26
2023/09/13 01:57:13;;;;;;;3.30;3.00;;;;;;;24.02;70.55;97256.03;4959007;28;20202;-26
2023/09/13 01:59:40;;;;;;;3.07;2.87;;;;;;;24.04;70.43;97266.34;4991917;28;20688;-26
2023/09/13 02:02:06;;;;;;;3.60;3.30;;;;;;;23.98;70.68;97258.53;4991345;28;20605;-26
2023/09/13 02:04:33;;;;;;;2.87;2.67;;;;;;;24.04;70.39;97266.34;4992136;28;20218;-26
2023/09/13 02:07:00;;;;;;;3.20;3.00;;;;;;;24.04;70.34;97266.34;4992148;28;20231;-26
2023/09/13 02:09:27;;;;;;;3.40;3.10;;;;;;;24.04;70.38;97274.88;4991767;28;20226;-26
2023/09/13 02:11:54;;;;;;;3.43;3.13;;;;;;;24.04;70.36;97266.34;4991941;28;20202;-26
2023/09/13 02:14:20;;;;;;;3.33;3.10;;;;;;;24.04;70.44;97264.59;4990911;28;20318;-26
2023/09/13 02:16:47;;;;;;;3.00;2.80;;;;;;;24.04;70.67;97262.03;4991793;28;20253;-26
2023/09/13 02:19:14;;;;;;;3.30;3.00;;;;;;;24.04;70.84;97248.34;4991714;28;20246;-26
2023/09/13 02:21:41;;;;;;;3.70;3.40;;;;;;;24.04;70.40;97246.63;4991536;28;20295;-26
2023/09/13 02:24:07;;;;;;;3.87;2.93;;;;;;;24.04;70.44;97246.63;4991829;28;20223;-26
2023/09/13 02:26:35;;;;;;;3.33;3.10;;;;;;;24.04;70.20;97250.94;4992848;28;20294;-26
2023/09/13 02:29:02;;;;;;;3.20;3.00;;;;;;;24.04;70.42;97253.50;4991472;28;20214;-26
2023/09/13 02:31:29;;;;;;;3.03;2.83;;;;;;;24.04;70.71;97259.47;4991840;28;20291;-26
2023/09/13 02:33:56;;;;;;;3.27;3.07;;;;;;;24.05;70.71;97262.91;4991143;28;20226;-26
2023/09/13 02:36:23;;;;;;;2.93;2.73;;;;;;;24.04;70.76;97254.34;4991264;28;20253;-26
2023/09/13 02:38:50;;;;;;;3.20;3.00;;;;;;;24.05;70.67;97247.50;4991881;28;20203;-26
2023/09/13 02:41:17;;;;;;;3.33;3.03;;;;;;;24.04;70.49;97256.91;4991580;28;20214;-26
2023/09/13 02:43:43;;;;;;;3.07;2.87;;;;;;;24.03;70.27;97244.91;4990948;28;20210;-26
2023/09/13 02:46:11;;;;;;;3.30;3.10;;;;;;;24.04;70.21;97244.06;4991665;28;20199;-26
2023/09/13 02:48:39;;;;;;;4.07;2.93;;;;;;;24.04;70.83;97256.91;4991542;28;20210;-26
2023/09/13 02:51:11;;;;;;;3.20;3.00;;;;;;;24.04;70.40;97240.66;4991870;28;20285;-26
2023/09/13 02:53:37;;;;;;;3.33;3.13;;;;;;;24.05;70.56;97252.66;4991343;28;20587;-26
2023/09/13 02:56:05;;;;;;;3.10;2.90;;;;;;;24.03;70.61;97260.31;4991645;28;20262;-26
2023/09/13 02:58:32;;;;;;;3.33;3.10;;;;;;;24.03;70.40;97265.47;4990831;28;20294;-26
2023/09/13 03:01:03;;;;;;;3.00;2.80;;;;;;;24.03;70.76;97274.84;4990778;28;20313;-26
2023/09/13 03:03:31;;;;;;;3.60;3.30;;;;;;;24.03;70.26;97274.84;4995008;28;20233;-27
2023/09/13 03:06:13;;;;;;;2.97;2.77;;;;;;;24.03;70.22;97280.84;4995657;28;20195;-26
2023/09/13 03:08:40;;;;;;;3.40;3.10;;;;;;;24.02;70.69;97273.13;4994982;28;20225;-26
2023/09/13 03:11:11;;;;;;;3.33;3.03;;;;;;;24.00;70.75;97275.69;4995175;28;20673;-26
2023/09/13 03:13:38;;;;;;;2.93;2.73;;;;;;;24.02;70.69;97275.69;4994535;28;20732;-26
2023/09/13 03:16:20;;;;;;;3.20;3.00;;;;;;;24.00;70.79;97278.25;4995265;28;20685;-26
2023/09/13 03:18:48;;;;;;;3.23;2.93;;;;;;;24.01;70.97;97268.84;4987074;28;20202;-26
2023/09/13 03:21:17;;;;;;;3.30;3.00;;;;;;;24.00;70.82;97275.69;4994134;28;20278;-26
2023/09/13 03:23:45;;;;;;;3.10;2.90;;;;;;;24.00;70.37;97274.81;4993685;28;20199;-26
2023/09/13 03:26:23;;;;;;;3.00;2.80;;;;;;;24.00;70.79;97277.38;4994658;28;20214;-26
2023/09/13 03:28:50;;;;;;;3.00;2.80;;;;;;;24.01;70.71;97273.97;4999199;28;20203;-26
2023/09/13 03:31:18;;;;;;;2.90;2.70;;;;;;;24.00;70.58;97267.09;4994809;28;20195;-26
2023/09/13 03:33:46;;;;;;;3.37;3.07;;;;;;;24.00;70.70;97274.81;4993899;28;20206;-26
2023/09/13 03:36:13;;;;;;;3.33;3.13;;;;;;;24.00;70.88;97277.38;4994438;28;20658;-27
2023/09/13 03:38:41;;;;;;;2.97;2.77;;;;;;;24.00;70.77;97270.53;4994741;28;20257;-26
2023/09/13 03:41:08;;;;;;;3.10;2.90;;;;;;;23.96;70.74;97261.06;4994681;28;20410;-26
2023/09/13 03:43:34;;;;;;;2.90;2.70;;;;;;;24.01;70.86;97268.84;4994357;28;20286;-26
2023/09/13 03:46:01;;;;;;;3.10;2.90;;;;;;;24.01;70.97;97261.16;4994480;28;20581;-26
2023/09/13 03:48:32;;;;;;;3.00;2.80;;;;;;;24.01;70.64;97263.72;4993901;28;20218;-26
2023/09/13 03:50:58;;;;;;;2.87;2.67;;;;;;;24.00;70.77;97244.88;4992049;28;20198;-26
2023/09/13 03:53:25;;;;;;;3.10;2.90;;;;;;;24.01;70.71;97256.00;4994094;28;20195;-26
2023/09/13 03:55:52;;;;;;;2.83;2.63;;;;;;;24.01;70.71;97266.28;4994170;28;20218;-26
2023/09/13 03:58:19;;;;;;;3.20;3.00;;;;;;;24.01;70.48;97272.25;4994716;28;20658;-27
2023/09/13 04:00:45;;;;;;;3.03;2.83;;;;;;;24.01;70.70;97272.25;4993063;28;20729;-26
2023/09/13 04:03:13;;;;;;;3.00;2.80;;;;;;;24.00;70.98;97265.41;4994445;28;20213;-26
2023/09/13 04:05:40;;;;;;;3.00;2.80;;;;;;;24.01;70.83;97263.72;4976810;28;20206;-26
2023/09/13 04:08:07;;;;;;;3.57;3.27;;;;;;;24.01;70.39;97264.56;4991615;28;20210;-26
2023/09/13 04:10:33;;;;;;;3.23;3.03;;;;;;;24.02;70.53;97262.88;4989260;28;20283;-26
2023/09/13 04:13:00;;;;;;;2.93;2.73;;;;;;;24.01;70.79;97261.16;4975631;28;20305;-26
2023/09/13 04:15:26;;;;;;;3.37;3.17;;;;;;;24.02;70.53;97265.44;4994010;28;20306;-26
2023/09/13 04:17:53;;;;;;;3.10;2.90;;;;;;;24.02;70.34;97268.88;4993568;28;20238;-35
2023/09/13 04:20:20;;;;;;;3.00;2.80;;;;;;;24.02;70.58;97268.00;4993393;28;20250;-27
2023/09/13 04:22:46;;;;;;;3.00;2.80;;;;;;;24.01;70.78;97272.25;4989861;28;20581;-26
2023/09/13 04:25:13;;;;;;;3.30;3.00;;;;;;;24.01;70.60;97282.53;4989328;28;20199;-26
2023/09/13 04:27:46;;;;;;;3.10;2.90;;;;;;;24.02;70.76;97278.28;4992221;28;20210;-26
2023/09/13 04:30:13;;;;;;;3.13;2.93;;;;;;;24.01;70.67;97284.25;4992905;28;20223;-26
2023/09/13 04:32:40;;;;;;;2.93;2.73;;;;;;;24.01;70.76;97282.53;4993213;28;20292;-26
2023/09/13 04:35:07;;;;;;;3.37;3.10;;;;;;;24.01;70.80;97295.38;4990908;28;20219;-26
2023/09/13 04:37:34;;;;;;;2.90;2.70;;;;;;;24.01;70.69;97294.53;4990446;28;20727;-26
2023/09/13 04:40:05;;;;;;;2.97;2.77;;;;;;;24.02;70.81;97296.25;4993827;28;20310;-26
2023/09/13 04:42:36;;;;;;;3.40;3.20;;;;;;;24.01;70.55;97305.63;4987077;28;20285;-26
2023/09/13 04:45:04;;;;;;;2.77;2.57;;;;;;;24.01;70.72;97313.34;4989960;28;20672;-26
2023/09/13 04:47:31;;;;;;;3.07;2.87;;;;;;;24.02;70.79;97311.66;4987785;28;20243;-26
2023/09/13 04:49:57;;;;;;;3.37;3.17;;;;;;;24.01;70.97;97310.78;4993067;28;20219;-26
2023/09/13 04:52:24;;;;;;;2.97;2.77;;;;;;;24.01;70.63;97315.91;4995273;28;20230;-26
2023/09/13 04:54:51;;;;;;;3.00;2.80;;;;;;;24.01;70.91;97317.63;4985955;28;20705;-26
2023/09/13 04:57:17;;;;;;;2.80;2.60;;;;;;;24.01;70.67;97325.31;4993390;28;20210;-26
2023/09/13 04:59:45;;;;;;;3.10;2.90;;;;;;;24.01;71.17;97327.91;4992118;28;20289;-26
2023/09/13 05:02:12;;;;;;;2.80;2.60;;;;;;;24.00;71.02;97331.28;4991533;28;20242;-26
2023/09/13 05:04:39;;;;;;;3.20;3.00;;;;;;;23.99;70.80;97327.88;4992865;28;20199;-26
2023/09/13 05:07:05;;;;;;;3.17;2.97;;;;;;;23.99;70.91;97338.13;4991730;28;21046;-26
2023/09/13 05:09:32;;;;;;;3.30;3.10;;;;;;;23.97;70.31;97331.22;4992638;28;20308;-27
2023/09/13 05:11:59;;;;;;;4.10;3.47;;;;;;;23.97;70.13;97333.78;4995930;28;20285;-26
2023/09/13 05:14:26;;;;;;;2.90;2.70;;;;;;;23.92;69.77;97325.16;4993879;28;20195;-26
2023/09/13 05:16:53;;;;;;;3.63;3.10;;;;;;;23.96;69.99;97332.06;4992388;28;20237;-26
2023/09/13 05:19:19;;;;;;;3.20;3.00;;;;;;;23.95;69.72;97335.47;4995465;28;20219;-26
2023/09/13 05:21:47;;;;;;;3.20;3.00;;;;;;;23.96;70.25;97339.78;4994128;28;20206;-26
2023/09/13 05:24:13;;;;;;;3.63;3.30;;;;;;;23.96;70.16;97350.03;4984826;28;20207;-26
2023/09/13 05:26:40;;;;;;;3.50;3.20;;;;;;;23.96;70.12;97350.03;4993213;28;20246;-26
2023/09/13 05:29:06;;;;;;;3.57;2.87;;;;;;;23.96;70.19;97363.75;4974646;28;20227;-26
2023/09/13 05:31:33;;;;;;;3.33;3.03;;;;;;;23.97;70.34;97369.72;4991103;28;20612;-26
2023/09/13 05:34:00;;;;;;;3.20;2.90;;;;;;;23.96;68.67;97370.59;4992060;28;20207;-26
2023/09/13 05:36:27;;;;;;;4.73;3.30;;;;;;;23.95;68.91;97361.13;4992476;28;20280;-26
2023/09/13 05:38:53;;;;;;;3.40;3.10;;;;;;;23.94;69.62;97356.81;4992375;28;20704;-26
2023/09/13 05:41:20;;;;;;;3.70;3.40;;;;;;;23.96;69.79;97363.75;4992488;28;20202;-26
2023/09/13 05:43:46;;;;;;;3.60;3.30;;;;;;;23.98;69.71;97371.50;4992033;28;20269;-26
2023/09/13 05:46:13;;;;;;;4.00;3.60;;;;;;;23.98;69.69;97366.34;4993396;28;20194;-26
2023/09/13 05:48:40;;;;;;;3.47;3.17;;;;;;;23.97;69.79;97365.47;4958583;28;20214;-26
2023/09/13 05:51:07;;;;;;;3.50;3.20;;;;;;;23.99;70.07;97365.50;4991829;28;20245;-26
2023/09/13 05:53:33;;;;;;;4.43;3.93;;;;;;;23.99;70.33;97362.94;4991809;28;20648;-26
2023/09/13 05:56:00;;;;;;;4.67;4.27;;;;;;;23.97;70.36;97370.59;4991617;28;20251;-26
2023/09/13 05:58:26;;;;;;;5.00;4.33;;;;;;;23.97;70.74;97372.31;4991913;28;20230;-26
2023/09/13 06:00:54;;;;;;;5.97;5.30;;;;;;;23.90;70.88;97358.47;4991129;28;20596;-26
2023/09/13 06:03:23;;;;;;;10.97;5.87;;;;;;;23.95;71.36;97364.56;4973196;28;21832;-26
2023/09/13 06:05:51;;;;;;;6.87;5.87;;;;;;;23.94;71.40;97374.78;4992217;28;20194;-27
2023/09/13 06:08:17;;;;;;;7.00;6.20;;;;;;;23.94;71.45;97378.22;4991077;28;20261;-26
2023/09/13 06:10:47;;;;;;;6.43;5.77;;;;;;;23.94;71.32;97382.47;4989849;28;20713;-26
2023/09/13 06:13:15;;;;;;;5.40;4.90;;;;;;;23.94;71.07;97387.63;4978465;28;20207;-26
2023/09/13 06:15:42;;;;;;;6.60;5.13;;;;;;;23.94;70.68;97385.94;4985485;28;20222;-26
2023/09/13 06:18:08;;;;;;;5.33;4.83;;;;;;;23.94;71.01;97391.06;4985463;28;20209;-26
2023/09/13 06:20:35;;;;;;;5.87;5.27;;;;;;;23.93;70.60;97391.91;4985295;28;20277;-26
2023/09/13 06:23:02;;;;;;;5.77;5.17;;;;;;;23.94;70.43;97390.19;4993495;28;20372;-26
2023/09/13 06:25:28;;;;;;;5.83;5.10;;;;;;;23.94;70.59;97390.19;4988949;28;20290;-27
2023/09/13 06:27:55;;;;;;;6.40;5.20;;;;;;;23.94;70.63;97382.47;4988101;28;20238;-27
2023/09/13 06:30:22;;;;;;;5.90;5.23;;;;;;;23.94;70.44;97388.50;4988149;28;20625;-27
2023/09/13 06:32:49;;;;;;;5.77;5.20;;;;;;;23.94;70.46;97388.50;4988475;28;20214;-26
2023/09/13 06:35:35;;;;;;;5.80;5.20;;;;;;;23.94;70.59;97391.06;4988323;28;20223;-26
2023/09/13 06:38:02;;;;;;;5.77;5.27;;;;;;;23.85;70.36;97382.31;4954604;28;20669;-26
2023/09/13 06:40:29;;;;;;;5.70;5.10;;;;;;;23.94;70.21;97391.06;4970207;28;20317;-26
2023/09/13 06:43:01;;;;;;;8.33;5.70;;;;;;;23.93;70.53;97386.78;4976873;28;20221;-27
2023/09/13 06:45:29;;;;;;;7.37;5.43;;;;;;;23.94;70.54;97391.06;4987133;28;20742;-26
2023/09/13 06:47:57;;;;;;;5.70;5.20;;;;;;;23.94;70.56;97397.88;4987621;28;20211;-26
2023/09/13 06:50:25;;;;;;;5.73;5.13;;;;;;;23.94;70.26;97406.47;4987858;28;20723;-26
2023/09/13 06:53:11;;;;;;;5.77;5.17;;;;;;;23.95;70.61;97402.19;4982527;28;20210;-26
2023/09/13 06:55:58;;;;;;;4.97;4.57;;;;;;;23.95;70.50;97402.19;4984406;28;20709;-26
2023/09/13 06:58:30;;;;;;;6.30;5.10;;;;;;;23.96;70.56;97409.97;4988338;28;20240;-27
2023/09/13 07:00:59;;;;;;;5.33;4.83;;;;;;;23.95;70.18;97415.91;5040160;22;20719;-24
2023/09/13 07:03:29;;;;;;;5.30;4.80;;;;;;;23.96;70.26;97420.22;5047168;28;20291;-23
2023/09/13 07:06:00;;;;;;;6.43;4.90;;;;;;;23.97;70.45;97418.50;5039669;28;20202;-24
2023/09/13 07:08:27;;;;;;;5.13;4.73;;;;;;;23.97;70.28;97421.06;5024787;28;20295;-24
2023/09/13 07:10:54;;;;;;;5.17;4.67;;;;;;;23.97;70.58;97419.38;5046067;28;20722;-24
2023/09/13 07:13:20;;;;;;;5.60;5.10;;;;;;;23.96;70.34;97420.22;5046355;28;20288;-23
2023/09/13 07:15:47;;;;;;;5.20;4.70;;;;;;;23.96;70.00;97421.94;5046114;28;20287;-24
2023/09/13 07:18:14;;;;;;;5.33;4.90;;;;;;;23.95;70.01;97421.03;5049354;28;20216;-24
2023/09/13 07:20:41;;;;;;;5.10;4.60;;;;;;;23.96;70.17;97424.50;5045822;28;20275;-24
2023/09/13 07:23:09;;;;;;;4.67;4.37;;;;;;;23.95;70.14;97425.31;5046397;28;20578;-24
2023/09/13 07:25:35;;;;;;;5.53;5.00;;;;;;;23.96;69.93;97420.22;5047087;28;20201;-24
2023/09/13 07:28:02;;;;;;;6.03;5.03;;;;;;;23.95;69.82;97426.19;5047663;28;20205;-24
2023/09/13 07:30:29;;;;;;;5.40;4.63;;;;;;;23.95;70.12;97436.44;5047434;28;20231;-24
2023/09/13 07:32:55;;;;;;;6.47;4.60;;;;;;;23.95;70.20;97438.13;5046025;28;20298;-24
2023/09/13 07:35:23;;;;;;;4.70;4.30;;;;;;;23.94;70.08;97439.81;5046848;28;20252;-24
2023/09/13 07:37:50;;;;;;;4.90;4.50;;;;;;;23.96;69.83;97445.03;5046720;28;20671;-24
2023/09/13 07:40:17;;;;;;;5.27;4.77;;;;;;;23.94;70.23;97437.25;5046868;28;20225;-24
2023/09/13 07:42:43;;;;;;;4.93;4.53;;;;;;;23.95;70.36;97439.00;5046410;28;20209;-24
2023/09/13 07:45:10;;;;;;;4.53;4.13;;;;;;;23.96;70.41;97442.47;5029637;28;20205;-24
2023/09/13 07:47:36;;;;;;;4.87;4.47;;;;;;;23.95;70.01;97444.16;5047583;28;20270;-24
2023/09/13 07:50:03;;;;;;;5.03;4.63;;;;;;;23.96;70.21;97438.19;5049988;28;20231;-24
2023/09/13 07:52:30;;;;;;;4.67;4.30;;;;;;;23.96;70.32;97442.47;5050228;28;20585;-24
2023/09/13 07:55:17;;;;;;;4.63;4.23;;;;;;;23.96;69.92;97445.03;5050273;28;20208;-24
2023/09/13 07:57:43;;;;;;;4.70;4.30;;;;;;;23.97;70.45;97442.50;5050636;28;20298;-24
2023/09/13 08:00:11;;;;;;;5.50;4.33;;;;;;;23.96;70.37;97447.59;5050782;28;20282;-24
2023/09/13 08:02:37;;;;;;;5.00;4.50;;;;;;;23.96;70.27;97456.16;5049304;28;20251;-24
2023/09/13 08:05:04;;;;;;;4.10;3.80;;;;;;;23.97;70.27;97457.88;5050774;28;20208;-24
2023/09/13 08:07:31;;;;;;;4.60;4.20;;;;;;;23.97;70.59;97463.03;5050322;28;20201;-23
2023/09/13 08:09:57;;;;;;;4.80;4.07;;;;;;;23.97;69.88;97463.03;5047624;28;20220;-24
2023/09/13 08:12:24;;;;;;;7.93;4.30;;;;;;;23.96;70.01;97466.44;5049731;28;20769;-24
2023/09/13 08:14:51;;;;;;;5.07;4.20;;;;;;;23.97;70.10;97465.59;5050014;28;20205;-24
2023/09/13 08:17:17;;;;;;;5.43;4.20;;;;;;;23.97;70.21;97467.28;5051248;28;20765;-24
2023/09/13 08:19:44;;;;;;;4.70;4.30;;;;;;;23.96;70.07;97463.00;5048620;28;20228;-24
2023/09/13 08:22:10;;;;;;;4.27;3.93;;;;;;;23.97;70.12;97474.97;5048943;28;20205;-24
2023/09/13 08:24:38;;;;;;;4.27;3.87;;;;;;;23.95;70.19;97469.81;5048620;28;20204;-24
2023/09/13 08:27:04;;;;;;;4.40;4.00;;;;;;;23.95;69.86;97474.97;5050147;28;20197;-24
2023/09/13 08:29:31;;;;;;;4.90;4.50;;;;;;;23.95;69.82;97479.22;5048632;28;20394;-24
2023/09/13 08:31:58;;;;;;;7.43;4.00;;;;;;;23.92;70.07;97487.69;5048657;28;20197;-24
2023/09/13 08:34:25;;;;;;;4.73;4.33;;;;;;;23.95;70.04;97469.81;5049091;28;20679;-24
2023/09/13 08:36:56;;;;;;;4.67;3.93;;;;;;;23.96;70.18;97471.56;5049460;28;20244;-24
2023/09/13 08:39:22;;;;;;;4.63;4.10;;;;;;;23.95;70.25;97489.47;5049333;28;20197;-24
2023/09/13 08:41:55;;;;;;;4.23;3.87;;;;;;;23.96;70.01;97488.66;5048739;28;20262;-24
2023/09/13 08:44:22;;;;;;;6.00;4.43;;;;;;;23.96;70.33;97493.81;5034758;28;20213;-24
2023/09/13 08:46:50;;;;;;;4.77;4.33;;;;;;;23.96;69.83;97491.22;5049637;28;20267;-24
2023/09/13 08:49:17;;;;;;;4.60;4.20;;;;;;;23.95;70.14;97494.63;5030597;28;20215;-24
2023/09/13 08:51:44;;;;;;;3.90;3.60;;;;;;;23.96;70.03;97501.50;5042797;28;20662;-24
2023/09/13 08:54:11;;;;;;;4.00;3.60;;;;;;;23.97;70.13;97503.22;5029989;28;20204;-24
2023/09/13 08:56:39;;;;;;;4.40;4.10;;;;;;;23.97;69.79;97510.94;5031086;28;20228;-24
2023/09/13 08:59:05;;;;;;;4.33;3.73;;;;;;;23.96;69.99;97510.06;5014891;28;20200;-24
2023/09/13 09:01:32;;;;;;;4.27;3.87;;;;;;;23.98;70.19;97507.53;5045601;28;20234;-24
2023/09/13 09:03:59;;;;;;;5.23;4.10;;;;;;;23.91;70.25;97500.50;5048761;28;20291;-24
2023/09/13 09:06:25;;;;;;;3.87;3.57;;;;;;;23.77;70.03;97476.28;5009080;28;20200;-23
2023/09/13 09:08:52;;;;;;;3.90;3.50;;;;;;;23.97;69.77;97514.38;5030761;28;20251;-24
2023/09/13 09:11:18;;;;;;;3.97;3.67;;;;;;;23.99;70.23;97509.25;5014209;28;20224;-24
2023/09/13 09:13:45;;;;;;;4.17;3.87;;;;;;;23.93;70.14;97506.53;5014223;28;20208;-24
2023/09/13 09:16:13;;;;;;;4.57;3.90;;;;;;;23.76;69.69;97472.84;5005217;28;20248;-24
2023/09/13 09:18:39;;;;;;;4.50;4.10;;;;;;;23.97;69.70;97508.34;5028073;28;20227;-24
2023/09/13 09:21:06;;;;;;;4.30;3.90;;;;;;;23.97;69.99;97508.34;5030803;28;20508;-24
2023/09/13 09:23:33;;;;;;;4.20;3.80;;;;;;;23.93;70.01;97501.41;5030258;28;20288;-24
2023/09/13 09:26:03;;;;;;;4.47;4.07;;;;;;;23.97;69.87;97513.50;5030457;28;20256;-24
2023/09/13 09:28:31;;;;;;;4.33;4.00;;;;;;;23.97;70.13;97510.94;5046986;28;20282;-24
2023/09/13 09:30:59;;;;;;;4.30;4.00;;;;;;;23.91;69.93;97503.06;5043395;28;20228;-24
2023/09/13 09:33:28;;;;;;;4.10;3.80;;;;;;;23.95;70.00;97510.03;5030015;28;20262;-24
2023/09/13 09:35:56;;;;;;;3.93;3.63;;;;;;;23.97;69.70;97508.34;5047335;28;20232;-24
2023/09/13 09:38:27;;;;;;;4.10;3.80;;;;;;;23.96;70.08;97512.66;5050674;28;20205;-24
2023/09/13 09:40:59;;;;;;;4.33;3.93;;;;;;;23.97;69.77;97505.78;5048565;28;20224;-24
2023/09/13 09:43:26;;;;;;;3.80;3.50;;;;;;;23.98;69.93;97513.53;5047515;28;20211;-24
2023/09/13 09:45:53;;;;;;;4.00;3.70;;;;;;;23.91;70.10;97501.38;5046424;28;20197;-24
2023/09/13 09:48:20;;;;;;;4.23;3.57;;;;;;;23.97;69.92;97511.81;5013716;28;20616;-24
2023/09/13 09:50:48;;;;;;;4.30;4.00;;;;;;;23.96;70.23;97517.78;5047256;28;20224;-24
2023/09/13 09:53:14;;;;;;;4.27;3.87;;;;;;;23.97;70.23;97513.50;5048441;28;20278;-24
2023/09/13 09:55:41;;;;;;;3.53;3.30;;;;;;;23.92;69.85;97492.84;5047512;28;20675;-24
2023/09/13 09:58:08;;;;;;;3.77;3.37;;;;;;;23.97;70.13;97501.53;5028281;28;20211;-24
2023/09/13 10:00:47;;;;;;;4.00;3.70;;;;;;;23.98;70.02;97497.28;5047292;28;20232;-23
2023/09/13 10:03:17;;;;;;;4.20;3.90;;;;;;;23.98;69.69;97499.84;5040850;28;20285;-24
2023/09/13 10:06:03;;;;;;;3.87;3.57;;;;;;;23.98;70.08;97505.81;5029155;28;20211;-24
2023/09/13 10:08:38;;;;;;;4.00;3.70;;;;;;;23.98;69.92;97510.94;5041225;28;20646;-24
2023/09/13 10:11:08;;;;;;;3.93;3.63;;;;;;;23.98;70.37;97508.38;5046723;28;20282;-24
2023/09/13 10:13:35;;;;;;;3.60;3.30;;;;;;;23.97;70.34;97511.81;5043227;28;20208;-24
2023/09/13 10:16:02;;;;;;;4.43;3.80;;;;;;;23.95;69.81;97505.75;5043604;28;20307;-24
2023/09/13 10:18:31;;;;;;;3.33;3.13;;;;;;;23.97;69.80;97513.50;5047890;28;20291;-24
2023/09/13 10:20:58;;;;;;;3.77;3.47;;;;;;;23.96;69.70;97512.66;5047971;28;20228;-24
2023/09/13 10:23:29;;;;;;;4.43;3.90;;;;;;;23.95;70.06;97510.91;5045017;28;20240;-24
2023/09/13 10:25:58;;;;;;;3.77;3.47;;;;;;;23.75;70.11;97480.50;5029772;28;20650;-24
2023/09/13 10:28:26;;;;;;;5.43;3.30;;;;;;;23.76;69.92;97480.53;5029795;28;20683;-24
2023/09/13 10:30:52;;;;;;;3.73;3.43;;;;;;;23.96;70.08;97520.34;5012909;28;20283;-24
2023/09/13 10:33:19;;;;;;;4.17;3.80;;;;;;;23.88;70.07;97495.31;5013877;28;20287;-24
2023/09/13 10:35:45;;;;;;;3.97;3.67;;;;;;;23.95;70.11;97503.19;5023039;28;20301;-24
2023/09/13 10:38:16;;;;;;;3.63;3.33;;;;;;;23.97;70.13;97516.94;5012865;28;20197;-24
2023/09/13 10:40:59;;;;;;;3.20;3.00;;;;;;;23.91;70.24;97503.94;5044889;28;20229;-24
2023/09/13 10:43:26;;;;;;;3.43;3.23;;;;;;;23.82;70.24;97485.81;5025050;28;20220;-24
2023/09/13 10:45:53;;;;;;;3.77;3.40;;;;;;;23.95;70.02;97505.75;5029959;28;20672;-24
2023/09/13 10:48:19;;;;;;;4.00;3.70;;;;;;;23.97;69.86;97505.78;5046484;28;20248;-24
2023/09/13 10:50:46;;;;;;;3.80;3.50;;;;;;;23.84;69.81;97489.28;5028729;28;20252;-24
2023/09/13 10:53:14;;;;;;;3.90;3.60;;;;;;;23.92;70.04;97487.69;5012598;28;20267;-24
2023/09/13 10:55:40;;;;;;;3.20;3.00;;;;;;;23.98;69.87;97502.41;5029855;28;20292;-25
2023/09/13 10:58:08;;;;;;;4.00;3.20;;;;;;;23.82;70.16;97472.09;5047372;28;20216;-24
2023/09/13 11:00:36;;;;;;;3.57;3.30;;;;;;;23.94;69.81;97503.13;5029102;28;20319;-23
2023/09/13 11:03:04;;;;;;;5.47;3.20;;;;;;;23.80;69.79;97472.06;5028931;28;20228;-24
2023/09/13 11:05:31;;;;;;;3.20;2.90;;;;;;;24.00;69.96;97503.28;5030519;28;20628;-24
2023/09/13 11:07:58;;;;;;;3.20;3.00;;;;;;;24.01;69.90;97512.75;5045904;28;20506;-24
2023/09/13 11:10:24;;;;;;;3.50;3.20;;;;;;;24.00;69.79;97505.84;5026060;28;20286;-24
2023/09/13 11:12:51;;;;;;;3.33;2.97;;;;;;;24.01;69.72;97507.59;5012500;28;20209;-24
2023/09/13 11:15:25;;;;;;;3.30;3.00;;;;;;;24.01;70.07;97497.34;5011914;28;20201;-24
2023/09/13 11:17:56;;;;;;;3.20;3.00;;;;;;;24.00;69.76;97501.59;5047965;28;20256;-24
2023/09/13 11:20:37;;;;;;;3.47;3.00;;;;;;;24.00;69.73;97500.72;5047450;28;20220;-24
2023/09/13 11:23:14;;;;;;;3.00;2.80;;;;;;;24.00;69.86;97499.03;5048446;28;20209;-24
2023/09/13 11:26:05;;;;;;;3.47;3.17;;;;;;;23.99;69.79;97499.88;5051464;28;20216;-24
2023/09/13 11:28:37;;;;;;;3.13;2.87;;;;;;;23.99;69.83;97494.72;5049091;28;20677;-24
2023/09/13 11:31:05;;;;;;;3.00;2.80;;;;;;;23.99;70.24;97497.31;5050771;28;20286;-24
2023/09/13 11:33:38;;;;;;;3.77;3.47;;;;;;;24.00;69.92;97495.56;5051280;28;20265;-24
2023/09/13 11:36:05;;;;;;;2.90;2.70;;;;;;;23.99;69.81;97499.00;5033381;28;20254;-24
2023/09/13 11:38:35;;;;;;;4.20;3.00;;;;;;;23.99;69.99;97492.16;5051182;28;20250;-24
2023/09/13 11:41:01;;;;;;;3.17;2.90;;;;;;;23.99;69.83;97491.28;5051391;28;20220;-24
2023/09/13 11:43:31;;;;;;;3.73;3.13;;;;;;;23.99;69.97;97492.16;5050641;28;20197;-24